Time;durP1;ratioP1;P1;durP2;ratioP2;P2;SDS_P1;SDS_P2;PMS_P1;PMS_P2;Temp;Humidity;BMP_temperature;BMP_pressure;BME280_temperature;BME280_humidity;BME280_pressure;Samples;Min_cycle;Max_cycle;Signal;HPM_P1;HPM_P2
2022/01/06 00:01:35;;;;;;;;;;;;;;;-0.33;100.00;100723.91;4970591;28;19925;-76
2022/01/06 00:04:00;;;;;;;;;;;;;;;-0.15;100.00;100727.31;4958539;28;19953;-76
2022/01/06 00:06:26;;;;;;;;;;;;;;;-0.22;100.00;100729.38;4959950;28;20008;-76
2022/01/06 00:08:54;;;;;;;;;;;;;;;-0.38;100.00;100737.94;4967186;28;20424;-76
2022/01/06 00:11:20;;;;;;;;;;;;;;;-0.54;100.00;100741.28;4955640;28;20383;-77
2022/01/06 00:24:21;;;;;;;;;;;;;;;-0.71;100.00;100777.34;4936654;28;19918;-76
2022/01/06 00:26:48;;;;;;;;;;;;;;;-0.64;100.00;100781.28;4938110;28;19917;-77
2022/01/06 00:29:15;;;;;;;;;;;;;;;-0.52;100.00;100777.28;4966634;28;20005;-76
2022/01/06 00:31:40;;;;;;;;;;;;;;;-0.66;100.00;100795.97;4959157;28;19955;-75
2022/01/06 00:34:10;;;;;;;;;;;;;;;-0.71;100.00;100790.22;4986124;28;20288;-76
2022/01/06 00:36:39;;;;;;;;;;;;;;;-0.88;100.00;100791.03;4941129;28;19968;-76
2022/01/06 00:39:05;;;;;;;;;;;;;;;-1.01;100.00;100804.44;4978291;28;19922;-76
2022/01/06 00:41:33;;;;;;;;;;;;;;;-1.06;100.00;100803.00;4958039;28;19928;-76
2022/01/06 00:43:59;;;;;;;;;;;;;;;-1.14;100.00;100797.38;4970018;28;19925;-76
2022/01/06 00:46:25;;;;;;;;;;;;;;;-1.12;100.00;100811.00;4941572;28;19929;-77
2022/01/06 00:48:50;;;;;;;;;;;;;;;-1.05;100.00;100815.81;4943959;28;19922;-77
2022/01/06 00:51:16;;;;;;;;;;;;;;;-1.07;100.00;100827.09;4952018;28;19923;-75
2022/01/06 00:53:41;;;;;;;;;;;;;;;-1.22;100.00;100826.03;4937920;28;19922;-76
2022/01/06 00:56:06;;;;;;;;;;;;;;;-1.24;100.00;100825.28;4957836;28;19949;-76
2022/01/06 00:58:32;;;;;;;;;;;;;;;-1.28;100.00;100823.72;4989884;28;20257;-76
2022/01/06 01:00:58;;;;;;;;;;;;;;;-1.23;100.00;100837.22;4975151;28;20619;-76
2022/01/06 01:03:24;;;;;;;;;;;;;;;-1.31;100.00;100837.56;4942068;28;19921;-77
2022/01/06 01:05:50;;;;;;;;;;;;;;;-1.34;100.00;100839.44;4981256;28;19925;-76
2022/01/06 01:08:16;;;;;;;;;;;;;;;-1.37;100.00;100830.94;4958078;28;20048;-77
2022/01/06 01:10:42;;;;;;;;;;;;;;;-1.30;100.00;100841.81;4942482;28;20000;-77
2022/01/06 01:13:11;;;;;;;;;;;;;;;-1.39;100.00;100847.38;4981376;28;19917;-77
2022/01/06 01:15:45;;;;;;;;;;;;;;;-1.46;100.00;100844.22;4959183;28;19924;-76
2022/01/06 01:18:13;;;;;;;;;;;;;;;-1.56;100.00;100848.09;4969741;28;20020;-76
2022/01/06 01:20:38;;;;;;;;;;;;;;;-1.61;100.00;100853.44;4932090;28;19988;-76
2022/01/06 01:23:04;;;;;;;;;;;;;;;-1.63;100.00;100857.81;4957325;28;20261;-77
2022/01/06 01:25:29;;;;;;;;;;;;;;;-1.66;100.00;100868.22;4966788;28;19918;-78
2022/01/06 01:27:56;;;;;;;;;;;;;;;-1.71;100.00;100870.16;4943087;28;19921;-77
2022/01/06 01:30:29;;;;;;;;;;;;;;;-1.71;100.00;100874.44;4945052;28;19918;-77
2022/01/06 01:32:55;;;;;;;;;;;;;;;-1.67;100.00;100888.88;4975156;28;20004;-79
2022/01/06 01:35:20;;;;;;;;;;;;;;;-1.67;100.00;100882.00;4955636;28;20012;-77
2022/01/06 01:37:46;;;;;;;;;;;;;;;-1.69;100.00;100888.09;4976661;28;20004;-76
2022/01/06 01:40:12;;;;;;;;;;;;;;;-1.68;100.00;100903.47;4975230;28;19918;-76
2022/01/06 01:42:38;;;;;;;;;;;;;;;-1.54;100.00;100902.03;4980724;28;19924;-77
2022/01/06 01:45:05;;;;;;;;;;;;;;;-1.61;100.00;100907.44;4953572;28;19914;-76
2022/01/06 01:47:38;;;;;;;;;;;;;;;-1.53;100.00;100914.84;4975182;28;19920;-76
2022/01/06 01:50:15;;;;;;;;;;;;;;;-1.57;100.00;100905.59;4962611;28;19917;-76
2022/01/06 01:52:52;;;;;;;;;;;;;;;-1.59;100.00;100912.53;4964901;28;19918;-76
2022/01/06 01:55:19;;;;;;;;;;;;;;;-1.58;100.00;100927.91;4967233;28;19922;-77
2022/01/06 01:57:45;;;;;;;;;;;;;;;-1.67;100.00;100930.03;4978617;28;19925;-78
2022/01/06 02:00:11;;;;;;;;;;;;;;;-1.71;100.00;100937.03;4953911;28;20036;-76
2022/01/06 02:02:41;;;;;;;;;;;;;;;-1.79;100.00;100939.06;4985045;28;19949;-77
2022/01/06 02:05:07;;;;;;;;;;;;;;;-1.84;100.00;100934.13;4953308;28;20308;-77
2022/01/06 02:07:33;;;;;;;;;;;;;;;-1.85;100.00;100944.47;4962141;28;19918;-78
2022/01/06 02:09:59;;;;;;;;;;;;;;;-1.83;100.00;100938.38;4971819;28;20008;-75
2022/01/06 02:12:25;;;;;;;;;;;;;;;-1.89;100.00;100937.78;4955519;28;20105;-78
2022/01/06 02:14:51;;;;;;;;;;;;;;;-1.86;100.00;100938.50;4968985;28;20443;-76
2022/01/06 02:17:17;;;;;;;;;;;;;;;-1.87;100.00;100939.38;4969953;28;19917;-75
2022/01/06 02:19:58;;;;;;;;;;;;;;;-1.90;100.00;100943.81;4958508;28;19917;-76
2022/01/06 02:22:24;;;;;;;;;;;;;;;-1.88;100.00;100939.47;4954018;28;19918;-76
2022/01/06 02:24:50;;;;;;;;;;;;;;;-1.80;100.00;100951.09;4971823;28;19940;-77
2022/01/06 02:27:16;;;;;;;;;;;;;;;-1.89;100.00;100948.06;4993597;28;20438;-77
2022/01/06 02:29:42;;;;;;;;;;;;;;;-1.83;100.00;100950.38;4972112;28;20024;-77
2022/01/06 02:32:10;;;;;;;;;;;;;;;-1.86;100.00;100950.53;4967081;28;19921;-76
2022/01/06 02:34:35;;;;;;;;;;;;;;;-1.87;100.00;100949.66;4966749;28;19922;-77
2022/01/06 02:37:01;;;;;;;;;;;;;;;-1.88;100.00;100949.75;4988378;28;19918;-77
2022/01/06 02:39:27;;;;;;;;;;;;;;;-1.93;100.00;100951.66;4978269;28;19913;-77
2022/01/06 02:41:53;;;;;;;;;;;;;;;-1.88;100.00;100958.28;4975215;28;19920;-77
2022/01/06 02:44:19;;;;;;;;;;;;;;;-1.95;100.00;100969.72;4971290;28;19918;-77
2022/01/06 02:46:44;;;;;;;;;;;;;;;-1.99;100.00;100963.84;4963151;28;19925;-76
2022/01/06 02:49:11;;;;;;;;;;;;;;;-1.97;100.00;100968.94;4956661;28;19917;-77
2022/01/06 02:51:38;;;;;;;;;;;;;;;-2.08;100.00;100966.78;4979441;28;20315;-77
2022/01/06 02:54:03;;;;;;;;;;;;;;;-2.09;100.00;100964.25;4949372;28;20012;-77
2022/01/06 02:56:32;;;;;;;;;;;;;;;-2.12;100.00;100967.81;4971670;28;19985;-76
2022/01/06 02:58:57;;;;;;;;;;;;;;;-2.14;100.00;100974.75;4960324;28;19914;-78
2022/01/06 03:01:23;;;;;;;;;;;;;;;-2.10;100.00;100984.00;4996091;28;19914;-78
2022/01/06 03:03:48;;;;;;;;;;;;;;;-2.19;100.00;100994.63;4958248;28;20004;-77
2022/01/06 03:06:14;;;;;;;;;;;;;;;-2.19;100.00;101000.59;4963148;28;19928;-76
2022/01/06 03:08:39;;;;;;;;;;;;;;;-2.18;100.00;101002.28;4965403;28;20572;-76
2022/01/06 03:11:06;;;;;;;;;;;;;;;-2.22;100.00;100999.91;4956332;28;19918;-77
2022/01/06 03:13:32;;;;;;;;;;;;;;;-2.23;100.00;100999.06;4965901;28;20011;-76
2022/01/06 03:15:57;;;;;;;;;;;;;;;-2.21;100.00;100999.00;4981916;28;19922;-77
2022/01/06 03:18:23;;;;;;;;;;;;;;;-2.21;100.00;100999.81;4976614;28;19980;-77
2022/01/06 03:20:48;;;;;;;;;;;;;;;-2.19;100.00;100997.19;4981558;28;19925;-76
2022/01/06 03:23:14;;;;;;;;;;;;;;;-2.18;100.00;101002.28;4961019;28;19914;-77
2022/01/06 03:25:39;;;;;;;;;;;;;;;-2.23;100.00;101004.19;4964657;28;19992;-76
2022/01/06 03:28:05;;;;;;;;;;;;;;;-2.25;100.00;101015.44;4964566;28;19928;-77
2022/01/06 03:30:30;;;;;;;;;;;;;;;-2.31;100.00;101015.66;4976618;28;19936;-77
2022/01/06 03:32:55;;;;;;;;;;;;;;;-2.34;100.00;101024.31;4977850;28;19925;-77
2022/01/06 03:35:25;;;;;;;;;;;;;;;-2.35;100.00;101027.78;4983090;28;20386;-77
2022/01/06 03:37:50;;;;;;;;;;;;;;;-2.43;100.00;101029.78;4963436;28;19937;-77
2022/01/06 03:40:16;;;;;;;;;;;;;;;-2.43;100.00;101029.78;4982205;28;19963;-77
2022/01/06 03:42:41;;;;;;;;;;;;;;;-2.48;100.00;101050.50;4957283;28;19957;-77
2022/01/06 03:45:09;;;;;;;;;;;;;;;-2.52;100.00;101053.22;4957968;28;20598;-79
2022/01/06 03:47:34;;;;;;;;;;;;;;;-2.55;100.00;101052.47;4951610;28;19917;-77
2022/01/06 03:50:00;;;;;;;;;;;;;;;-2.49;100.00;101064.25;4943300;28;19932;-77
2022/01/06 03:52:26;;;;;;;;;;;;;;;-2.53;100.00;101069.56;4975372;28;19924;-77
2022/01/06 03:54:51;;;;;;;;;;;;;;;-2.55;100.00;101074.75;4958144;28;19917;-77
2022/01/06 03:57:17;;;;;;;;;;;;;;;-2.57;100.00;101074.78;4970105;28;19918;-78
2022/01/06 03:59:43;;;;;;;;;;;;;;;-2.57;100.00;101073.97;4981914;28;19917;-74
2022/01/06 04:02:08;;;;;;;;;;;;;;;-2.63;100.00;101080.16;4972744;28;20376;-77
2022/01/06 04:04:34;;;;;;;;;;;;;;;-2.63;100.00;101079.31;4987010;28;20350;-77
2022/01/06 04:06:59;;;;;;;;;;;;;;;-2.60;100.00;101077.50;4946477;28;19925;-76
2022/01/06 04:09:25;;;;;;;;;;;;;;;-2.61;100.00;101082.66;4981796;28;20028;-77
2022/01/06 04:11:51;;;;;;;;;;;;;;;-2.69;100.00;101085.50;4955789;28;19917;-77
2022/01/06 04:14:16;;;;;;;;;;;;;;;-2.68;100.00;101096.63;4961214;28;19918;-77
2022/01/06 04:16:42;;;;;;;;;;;;;;;-2.69;100.00;101097.50;4958950;28;19917;-77
2022/01/06 04:19:07;;;;;;;;;;;;;;;-2.67;100.00;101103.44;4942581;28;19926;-77
2022/01/06 04:21:33;;;;;;;;;;;;;;;-2.67;100.00;101104.28;4960960;28;20003;-77
2022/01/06 04:23:59;;;;;;;;;;;;;;;-2.71;100.00;101095.00;4960608;28;19918;-77
2022/01/06 04:26:24;;;;;;;;;;;;;;;-2.70;100.00;101112.06;4993086;28;19918;-78
2022/01/06 04:28:50;;;;;;;;;;;;;;;-2.75;100.00;101107.09;4960887;28;20414;-77
2022/01/06 04:31:16;;;;;;;;;;;;;;;-2.74;100.00;101121.59;4957563;28;19918;-77
2022/01/06 04:33:41;;;;;;;;;;;;;;;-2.58;100.00;101129.63;4951436;28;20306;-76
2022/01/06 04:36:08;;;;;;;;;;;;;;;-2.40;100.00;101137.59;4957132;28;20376;-76
2022/01/06 04:38:34;;;;;;;;;;;;;;;-2.42;100.00;101142.78;4972506;28;20004;-77
2022/01/06 04:40:59;;;;;;;;;;;;;;;-2.47;100.00;101147.22;4939733;28;19917;-76
2022/01/06 04:43:25;;;;;;;;;;;;;;;-2.48;100.00;101152.44;4955972;28;19918;-75
2022/01/06 04:45:51;;;;;;;;;;;;;;;-2.58;100.00;101150.19;4965135;28;20590;-75
2022/01/06 04:48:16;;;;;;;;;;;;;;;-2.60;100.00;101154.53;4971310;28;19963;-77
2022/01/06 04:50:42;;;;;;;;;;;;;;;-2.62;100.00;101161.47;4972874;28;19920;-75
2022/01/06 04:53:07;;;;;;;;;;;;;;;-2.65;100.00;101168.44;4974039;28;19926;-75
2022/01/06 04:55:33;;;;;;;;;;;;;;;-2.67;100.00;101176.19;4974838;28;20571;-76
2022/01/06 04:57:58;;;;;;;;;;;;;;;-2.67;100.00;101183.88;4946878;28;19925;-76
2022/01/06 05:00:24;;;;;;;;;;;;;;;-2.63;100.00;101182.06;4956217;28;19984;-77
2022/01/06 05:02:49;;;;;;;;;;;;;;;-2.63;100.00;101194.91;4990971;28;20008;-76
2022/01/06 05:05:14;;;;;;;;;;;;;;;-2.69;100.00;101188.22;4955647;28;19922;-77
2022/01/06 05:07:40;;;;;;;;;;;;;;;-2.73;100.00;101184.09;4955989;28;19928;-77
2022/01/06 05:10:07;;;;;;;;;;;;;;;-2.76;100.00;101190.16;4970073;28;20000;-78
2022/01/06 05:12:33;;;;;;;;;;;;;;;-2.86;100.00;101193.06;4942979;28;19918;-76
2022/01/06 05:14:59;;;;;;;;;;;;;;;-2.88;100.00;101195.69;4946734;28;19925;-76
2022/01/06 05:17:25;;;;;;;;;;;;;;;-2.86;100.00;101187.91;4960567;28;19918;-77
2022/01/06 05:19:50;;;;;;;;;;;;;;;-2.83;100.00;101193.78;4956970;28;19925;-77
2022/01/06 05:22:16;;;;;;;;;;;;;;;-2.85;100.00;101200.72;4970882;28;20339;-76
2022/01/06 05:24:42;;;;;;;;;;;;;;;-2.88;100.00;101221.38;4960086;28;19918;-77
2022/01/06 05:27:10;;;;;;;;;;;;;;;-2.84;100.00;101222.13;4940502;28;19917;-77
2022/01/06 05:29:36;;;;;;;;;;;;;;;-2.81;100.00;101227.97;4958504;28;20327;-76
2022/01/06 05:32:02;;;;;;;;;;;;;;;-2.70;100.00;101234.50;4964722;28;19918;-77
2022/01/06 05:34:27;;;;;;;;;;;;;;;-2.67;100.00;101242.13;4962957;28;20408;-76
2022/01/06 05:36:53;;;;;;;;;;;;;;;-2.62;100.00;101227.38;4961360;28;19933;-75
2022/01/06 05:39:18;;;;;;;;;;;;;;;-2.56;100.00;101235.72;4973521;28;19914;-77
2022/01/06 05:41:45;;;;;;;;;;;;;;;-2.56;100.00;101229.75;4961466;28;19961;-77
2022/01/06 05:44:11;;;;;;;;;;;;;;;-2.49;100.00;101233.78;4956314;28;19924;-77
2022/01/06 05:46:36;;;;;;;;;;;;;;;-2.50;100.00;101237.25;4961267;28;19913;-77
2022/01/06 05:49:02;;;;;;;;;;;;;;;-2.56;100.00;101237.47;4971699;28;20787;-78
2022/01/06 05:51:27;;;;;;;;;;;;;;;-2.60;100.00;101241.00;4978464;28;19968;-78
2022/01/06 05:53:54;;;;;;;;;;;;;;;-2.63;100.00;101241.94;4981787;28;19925;-77
2022/01/06 05:56:20;;;;;;;;;;;;;;;-2.67;100.00;101242.94;4978150;28;20054;-77
2022/01/06 05:58:45;;;;;;;;;;;;;;;-2.70;100.00;101240.47;4959954;28;20549;-77
2022/01/06 06:01:10;;;;;;;;;;;;;;;-2.64;100.00;101242.81;4960735;28;20145;-78
2022/01/06 06:03:36;;;;;;;;;;;;;;;-2.69;100.00;101239.59;4955402;28;19914;-77
2022/01/06 06:06:02;;;;;;;;;;;;;;;-2.74;100.00;101247.44;4955305;28;19929;-76
2022/01/06 06:08:28;;;;;;;;;;;;;;;-2.78;100.00;101252.72;4948063;28;19925;-76
2022/01/06 06:10:54;;;;;;;;;;;;;;;-2.83;100.00;101244.31;4970678;28;19917;-77
2022/01/06 06:13:19;;;;;;;;;;;;;;;-2.86;100.00;101246.97;4959675;28;20388;-76
2022/01/06 06:15:45;;;;;;;;;;;;;;;-2.90;100.00;101255.66;4939243;28;19918;-77
2022/01/06 06:18:12;;;;;;;;;;;;;;;-2.95;100.00;101260.94;4970861;28;19917;-78
2022/01/06 06:20:37;;;;;;;;;;;;;;;-2.99;100.00;101260.19;4955923;28;19922;-77
2022/01/06 06:23:03;;;;;;;;;;;;;;;-3.02;100.00;101267.16;4971965;28;19917;-77
2022/01/06 06:25:28;;;;;;;;;;;;;;;-3.03;100.00;101270.59;4979955;28;20295;-77
2022/01/06 06:27:54;;;;;;;;;;;;;;;-3.05;100.00;101275.78;4960099;28;19952;-78
2022/01/06 06:30:20;;;;;;;;;;;;;;;-3.06;100.00;101286.09;4952013;28;19925;-77
2022/01/06 06:32:45;;;;;;;;;;;;;;;-3.10;100.00;101289.66;4978275;28;20384;-77
2022/01/06 06:35:11;;;;;;;;;;;;;;;-3.08;100.00;101296.41;4952764;28;19944;-77
2022/01/06 06:37:37;;;;;;;;;;;;;;;-3.05;100.00;101295.47;4955665;28;19936;-76
2022/01/06 06:40:03;;;;;;;;;;;;;;;-3.01;100.00;101300.47;4969351;28;19917;-77
2022/01/06 06:42:29;;;;;;;;;;;;;;;-2.97;100.00;101299.50;4958304;28;19924;-77
2022/01/06 06:44:55;;;;;;;;;;;;;;;-2.89;100.00;101308.69;4970921;28;19920;-77
2022/01/06 06:47:20;;;;;;;;;;;;;;;-2.81;100.00;101309.28;4955103;28;19921;-76
2022/01/06 06:49:46;;;;;;;;;;;;;;;-2.70;100.00;101316.69;4998267;28;19971;-77
2022/01/06 06:52:12;;;;;;;;;;;;;;;-2.62;100.00;101318.13;4996141;28;19924;-76
2022/01/06 06:54:38;;;;;;;;;;;;;;;-2.55;100.00;101321.34;4971400;28;19921;-77
2022/01/06 06:57:03;;;;;;;;;;;;;;;-2.53;100.00;101319.56;4973852;28;20303;-77
2022/01/06 06:59:29;;;;;;;;;;;;;;;-2.53;100.00;101323.84;4970081;28;19918;-77
2022/01/06 07:01:54;;;;;;;;;;;;;;;-2.53;100.00;101326.44;4984292;28;19913;-77
2022/01/06 07:04:20;;;;;;;;;;;;;;;-2.59;100.00;101327.47;4957681;28;19917;-77
2022/01/06 07:06:45;;;;;;;;;;;;;;;-2.60;100.00;101333.47;4946371;28;19935;-76
2022/01/06 07:09:11;;;;;;;;;;;;;;;-2.59;100.00;101340.31;4954852;28;19939;-78
2022/01/06 07:11:37;;;;;;;;;;;;;;;-2.64;100.00;101342.16;4952493;28;19917;-77
2022/01/06 07:14:02;;;;;;;;;;;;;;;-2.73;100.00;101351.00;4966459;28;19972;-77
2022/01/06 07:16:28;;;;;;;;;;;;;;;-2.81;100.00;101342.66;5000811;28;19942;-77
2022/01/06 07:18:53;;;;;;;;;;;;;;;-2.89;100.00;101353.19;4982482;28;19972;-76
2022/01/06 07:21:19;;;;;;;;;;;;;;;-2.95;100.00;101351.63;4960059;28;19944;-77
2022/01/06 07:23:44;;;;;;;;;;;;;;;-3.02;100.00;101352.69;4985949;28;20376;-77
2022/01/06 07:26:10;;;;;;;;;;;;;;;-3.05;100.00;101354.50;4976199;28;20280;-77
2022/01/06 07:28:36;;;;;;;;;;;;;;;-3.09;100.00;101360.59;4975027;28;19938;-77
2022/01/06 07:31:01;;;;;;;;;;;;;;;-3.13;100.00;101355.59;4994233;28;19918;-76
2022/01/06 07:33:27;;;;;;;;;;;;;;;-3.16;100.00;101362.53;4960445;28;19927;-77
2022/01/06 07:35:52;;;;;;;;;;;;;;;-3.15;100.00;101357.31;4947756;28;19918;-77
2022/01/06 07:38:18;;;;;;;;;;;;;;;-3.18;100.00;101367.69;4972998;28;19964;-78
2022/01/06 07:40:43;;;;;;;;;;;;;;;-3.18;100.00;101372.81;4965675;28;19945;-77
2022/01/06 07:43:09;;;;;;;;;;;;;;;-3.15;100.00;101375.28;4977954;28;20004;-76
2022/01/06 07:45:35;;;;;;;;;;;;;;;-3.05;100.00;101370.75;4965626;28;19917;-77
2022/01/06 07:48:03;;;;;;;;;;;;;;;-2.99;100.00;101393.69;4967833;28;19921;-77
2022/01/06 07:50:30;;;;;;;;;;;;;;;-2.89;100.00;101391.69;4967403;28;20351;-77
2022/01/06 07:52:55;;;;;;;;;;;;;;;-2.90;100.00;101400.28;4984706;28;19925;-77
2022/01/06 07:55:21;;;;;;;;;;;;;;;-2.88;100.00;101402.78;4941864;28;19922;-77
2022/01/06 07:57:46;;;;;;;;;;;;;;;-2.86;100.00;101403.59;4961790;28;19922;-77
2022/01/06 08:00:12;;;;;;;;;;;;;;;-2.89;100.00;101406.25;4954556;28;19942;-76
2022/01/06 08:02:38;;;;;;;;;;;;;;;-2.94;100.00;101407.22;4941212;28;19917;-76
2022/01/06 08:05:04;;;;;;;;;;;;;;;-2.98;100.00;101399.66;4956216;28;20266;-77
2022/01/06 08:07:30;;;;;;;;;;;;;;;-3.00;100.00;101415.09;4948190;28;19918;-76
2022/01/06 08:09:55;;;;;;;;;;;;;;;-3.01;100.00;101415.16;4974996;28;20016;-77
2022/01/06 08:12:20;;;;;;;;;;;;;;;-3.01;100.00;101415.16;4962798;28;19961;-77
2022/01/06 08:14:46;;;;;;;;;;;;;;;-3.05;100.00;101416.97;4961103;28;19925;-76
2022/01/06 08:17:11;;;;;;;;;;;;;;;-3.03;100.00;101416.91;4974481;28;19917;-77
2022/01/06 08:19:37;;;;;;;;;;;;;;;-3.02;100.00;101419.44;4962776;28;19939;-77
2022/01/06 08:22:03;;;;;;;;;;;;;;;-3.01;100.00;101415.16;4962470;28;19921;-77
2022/01/06 08:24:28;;;;;;;;;;;;;;;-3.01;100.00;101418.56;4981103;28;19960;-77
2022/01/06 08:26:55;;;;;;;;;;;;;;;-2.99;100.00;101421.91;4971617;28;19922;-77
2022/01/06 08:29:21;;;;;;;;;;;;;;;-2.90;100.00;101422.53;4972485;28;19964;-77
2022/01/06 08:31:46;;;;;;;;;;;;;;;-2.82;100.00;101425.75;4965157;28;20050;-78
2022/01/06 08:34:12;;;;;;;;;;;;;;;-2.74;100.00;101431.50;4960043;28;19921;-77
2022/01/06 08:36:37;;;;;;;;;;;;;;;-2.63;100.00;101437.16;4980508;28;19960;-76
2022/01/06 08:39:03;;;;;;;;;;;;;;;-2.59;100.00;101445.63;4961584;28;19917;-76
2022/01/06 08:41:28;;;;;;;;;;;;;;;-2.55;100.00;101442.91;4995381;28;19921;-76
2022/01/06 08:43:54;;;;;;;;;;;;;;;-2.52;100.00;101441.13;4962868;28;19933;-77
2022/01/06 08:46:19;;;;;;;;;;;;;;;-2.48;100.00;101443.56;4976872;28;19913;-76
2022/01/06 08:48:45;;;;;;;;;;;;;;;-2.44;100.00;101439.19;4961195;28;19914;-77
2022/01/06 08:51:10;;;;;;;;;;;;;;;-2.31;100.00;101452.50;4972852;28;19917;-76
2022/01/06 08:53:36;;;;;;;;;;;;;;;-2.32;100.00;101450.81;4997950;28;19925;-76
2022/01/06 08:56:02;;;;;;;;;;;;;;;-2.28;100.00;101454.97;4977359;28;19918;-78
2022/01/06 08:58:27;;;;;;;;;;;;;;;-2.27;100.00;101454.91;4962705;28;19920;-77
2022/01/06 09:00:53;;;;;;;;;;;;;;;-2.22;100.00;101457.38;4983658;28;19927;-76
2022/01/06 09:03:18;;;;;;;;;;;;;;;-2.19;100.00;101457.25;4957825;28;20315;-77
2022/01/06 09:05:44;;;;;;;;;;;;;;;-2.11;100.00;101460.44;4965847;28;19926;-76
2022/01/06 09:08:09;;;;;;;;;;;;;;;-2.01;100.00;101450.72;4974490;28;19929;-77
2022/01/06 09:10:36;;;;;;;;;;;;;;;-1.95;100.00;101453.09;4974509;28;20385;-76
2022/01/06 09:13:01;;;;;;;;;;;;;;;-1.86;100.00;101455.38;4959468;28;19960;-75
2022/01/06 09:15:26;;;;;;;;;;;;;;;-1.70;100.00;101458.28;4975058;28;19922;-76
2022/01/06 09:17:52;;;;;;;;;;;;;;;-1.61;100.00;101457.13;4959904;28;19917;-76
2022/01/06 09:20:18;;;;;;;;;;;;;;;-1.54;100.00;101465.47;4957075;28;20296;-76
2022/01/06 09:22:44;;;;;;;;;;;;;;;-1.40;100.00;101460.72;4978682;28;19971;-76
2022/01/06 09:25:11;;;;;;;;;;;;;;;-1.27;100.00;101461.16;4955617;28;19972;-77
2022/01/06 09:27:37;;;;;;;;;;;;;;;-1.28;100.00;101469.75;4977591;28;20331;-78
2022/01/06 09:30:03;;;;;;;;;;;;;;;-1.26;100.00;101466.25;4963102;28;19917;-76
2022/01/06 09:32:29;;;;;;;;;;;;;;;-1.18;100.00;101474.53;4979700;28;19975;-77
2022/01/06 09:34:54;;;;;;;;;;;;;;;-1.12;100.00;101475.22;4958591;28;19918;-77
2022/01/06 09:37:20;;;;;;;;;;;;;;;-1.06;100.00;101480.97;4958165;28;19914;-76
2022/01/06 09:39:47;;;;;;;;;;;;;;;-1.04;100.00;101486.91;4957823;28;19960;-76
2022/01/06 09:42:13;;;;;;;;;;;;;;;-0.99;100.00;101497.06;4941563;28;19924;-77
2022/01/06 09:44:39;;;;;;;;;;;;;;;-0.91;100.00;101501.94;4967270;28;20056;-76
2022/01/06 09:47:06;;;;;;;;;;;;;;;-0.87;100.00;101501.78;4956902;28;20016;-76
2022/01/06 09:49:35;;;;;;;;;;;;;;;-0.81;100.00;101501.59;4951167;28;20296;-77
2022/01/06 09:52:00;;;;;;;;;;;;;;;-0.63;100.00;101501.81;4964120;28;20384;-76
2022/01/06 09:54:26;;;;;;;;;;;;;;;-0.51;100.00;101500.50;4974846;28;19929;-76
2022/01/06 09:56:51;;;;;;;;;;;;;;;-0.25;100.00;101499.53;4957488;28;19913;-76
2022/01/06 09:59:17;;;;;;;;;;;;;;;-0.35;100.00;101496.47;4977365;28;19913;-77
2022/01/06 10:01:42;;;;;;;;;;;;;;;-0.34;100.00;101500.75;4978257;28;20012;-76
2022/01/06 10:04:18;;;;;;;;;;;;;;;-0.26;100.00;101500.44;4973730;28;20657;-76
2022/01/06 10:06:45;;;;;;;;;;;;;;;-0.26;100.00;101495.28;4969533;28;19924;-77
2022/01/06 10:09:11;;;;;;;;;;;;;;;-0.27;100.00;101498.75;4962278;28;19917;-78
2022/01/06 10:11:36;;;;;;;;;;;;;;;-0.15;100.00;101505.19;4989357;28;19924;-77
2022/01/06 10:14:05;;;;;;;;;;;;;;;0.04;100.00;101507.88;4975328;28;19921;-78
2022/01/06 10:16:31;;;;;;;;;;;;;;;0.14;100.00;101511.78;4987980;28;19997;-77
2022/01/06 10:19:04;;;;;;;;;;;;;;;0.14;100.00;101507.47;4963366;28;20421;-77
2022/01/06 10:21:31;;;;;;;;;;;;;;;0.15;100.00;101508.31;4970944;28;19941;-77
2022/01/06 10:23:57;;;;;;;;;;;;;;;0.13;100.00;101513.53;4976261;28;20291;-77
2022/01/06 10:26:23;;;;;;;;;;;;;;;0.13;100.00;101505.81;4957635;28;20004;-76
2022/01/06 10:28:50;;;;;;;;;;;;;;;0.16;100.00;101503.09;4942022;28;20032;-76
2022/01/06 10:31:18;;;;;;;;;;;;;;;0.34;100.00;101506.69;4974416;28;19920;-76
2022/01/06 10:33:43;;;;;;;;;;;;;;;0.29;100.00;101500.84;4963566;28;20467;-76
2022/01/06 10:36:09;;;;;;;;;;;;;;;0.29;100.00;101503.44;4974656;28;19917;-76
2022/01/06 10:38:36;;;;;;;;;;;;;;;0.26;100.00;101505.31;4975105;28;19927;-76
2022/01/06 10:41:27;;;;;;;;;;;;;;;0.32;100.00;101513.66;4977459;28;19913;-77
2022/01/06 10:43:55;;;;;;;;;;;;;;;0.45;100.00;101515.72;4961037;28;19918;-76
2022/01/06 10:46:33;;;;;;;;;;;;;;;0.49;100.00;101512.09;4957418;28;19917;-76
2022/01/06 10:48:59;;;;;;;;;;;;;;;0.55;100.00;101510.13;4964833;28;20354;-76
2022/01/06 10:51:32;;;;;;;;;;;;;;;0.77;100.00;101515.25;4961037;28;19972;-76
2022/01/06 10:53:58;;;;;;;;;;;;;;;0.75;100.00;101513.63;4976850;28;19928;-78
2022/01/06 10:56:24;;;;;;;;;;;;;;;0.90;100.00;101515.53;4962513;28;20012;-77
2022/01/06 10:58:50;;;;;;;;;;;;;;;0.91;100.00;101516.41;4961911;28;19950;-77
2022/01/06 11:01:16;;;;;;;;;;;;;;;0.89;100.00;101518.22;4980110;28;19917;-77
2022/01/06 11:03:42;;;;;;;;;;;;;;;0.99;100.00;101524.66;4982023;28;19925;-80
2022/01/06 11:06:10;;;;;;;;;;;;;;;1.03;100.00;101525.38;4944741;28;19917;-79
2022/01/06 11:08:39;;;;;;;;;;;;;;;1.09;100.00;101530.25;4961023;28;19918;-77
2022/01/06 11:13:34;;;;;;;;;;;;;;;1.31;100.00;101532.75;4959025;28;19929;-77
2022/01/06 11:16:00;;;;;;;;;;;;;;;1.34;100.00;101527.47;4956742;28;19968;-77
2022/01/06 11:18:26;;;;;;;;;;;;;;;1.41;100.00;101528.03;4942265;28;19921;-77
2022/01/06 11:21:00;;;;;;;;;;;;;;;1.39;100.00;101535.00;4992275;28;19937;-77
2022/01/06 11:23:26;;;;;;;;;;;;;;;1.65;100.00;101534.66;4958089;28;19997;-77
2022/01/06 11:26:06;;;;;;;;;;;;;;;1.60;100.00;101540.97;4975880;28;20028;-76
2022/01/06 11:28:32;;;;;;;;;;;;;;;1.73;100.00;101542.94;4973050;28;19963;-75
2022/01/06 11:31:11;;;;;;;;;;;;;;;1.72;100.00;101538.66;4985665;28;19913;-76
2022/01/06 11:33:40;;;;;;;;;;;;;;;2.06;100.00;101546.63;4978669;28;19917;-76
2022/01/06 11:36:16;;;;;;;;;;;;;;;2.13;100.00;101548.03;4963656;28;20383;-77
2022/01/06 11:38:45;;;;;;;;;;;;;;;2.42;100.00;101551.78;4959877;28;19918;-75
2022/01/06 11:41:11;;;;;;;;;;;;;;;2.45;100.00;101546.47;4980768;28;20352;-76
2022/01/06 11:43:37;;;;;;;;;;;;;;;2.54;100.00;101550.34;4974022;28;19926;-77
2022/01/06 11:46:02;;;;;;;;;;;;;;;2.60;100.00;101554.41;4962155;28;19942;-77
2022/01/06 11:48:28;;;;;;;;;;;;;;;2.66;100.00;101554.94;4981411;28;20404;-77
2022/01/06 11:50:53;;;;;;;;;;;;;;;2.64;100.00;101554.19;4962495;28;19957;-76
2022/01/06 11:53:29;;;;;;;;;;;;;;;2.55;100.00;101553.81;4957726;28;19952;-76
2022/01/06 11:55:54;;;;;;;;;;;;;;;2.68;100.00;101557.47;4959140;28;20364;-77
2022/01/06 11:58:22;;;;;;;;;;;;;;;2.59;100.00;101563.09;4956386;28;19968;-76
2022/01/06 12:00:54;;;;;;;;;;;;;;;2.50;100.00;101567.78;4941930;28;19918;-76
2022/01/06 12:03:19;;;;;;;;;;;;;;;2.57;100.00;101563.16;4993357;28;19914;-76
2022/01/06 12:05:49;;;;;;;;;;;;;;;2.52;100.00;101563.41;4989367;28;20402;-76
2022/01/06 12:08:15;;;;;;;;;;;;;;;2.70;98.71;101561.66;4957909;28;19994;-76
2022/01/06 12:10:42;;;;;;;;;;;;;;;2.54;100.00;101563.31;4960778;28;19924;-75
2022/01/06 12:13:08;;;;;;;;;;;;;;;2.62;100.00;101565.53;4975347;28;20619;-76
2022/01/06 12:15:44;;;;;;;;;;;;;;;2.54;100.00;101560.72;4987567;28;19977;-76
2022/01/06 12:18:10;;;;;;;;;;;;;;;2.50;100.00;101554.84;4957009;28;20097;-76
2022/01/06 12:20:35;;;;;;;;;;;;;;;2.80;98.87;101553.44;4957927;28;20032;-76
2022/01/06 12:23:00;;;;;;;;;;;;;;;2.91;98.04;101556.31;4981769;28;20631;-76
2022/01/06 12:25:27;;;;;;;;;;;;;;;2.98;97.48;101552.50;4953723;28;19949;-76
2022/01/06 12:27:54;;;;;;;;;;;;;;;2.72;100.00;101553.81;4956015;28;20388;-76
2022/01/06 12:30:21;;;;;;;;;;;;;;;2.50;100.00;101556.59;4960522;28;20299;-76
2022/01/06 12:33:01;;;;;;;;;;;;;;;2.42;100.00;101558.72;4964728;28;19925;-76
2022/01/06 12:35:37;;;;;;;;;;;;;;;2.38;100.00;101559.81;4960952;28;19921;-78
2022/01/06 12:38:02;;;;;;;;;;;;;;;2.37;100.00;101565.88;4958972;28;19941;-77